sensor_id;sensor_type;location;lat;lon;timestamp;temperature;humidity
35381;DHT22;21486;51.916;8.378;2024-01-16T00:00:22;0.80;99.90
35381;DHT22;21486;51.916;8.378;2024-01-16T00:02:48;0.70;99.90
35381;DHT22;21486;51.916;8.378;2024-01-16T00:05:13;0.70;99.90
35381;DHT22;21486;51.916;8.378;2024-01-16T00:07:39;0.70;99.90
35381;DHT22;21486;51.916;8.378;2024-01-16T00:10:08;0.70;99.90
35381;DHT22;21486;51.916;8.378;2024-01-16T00:12:33;0.70;99.90
35381;DHT22;21486;51.916;8.378;2024-01-16T00:14:58;0.70;99.90
35381;DHT22;21486;51.916;8.378;2024-01-16T00:17:24;0.70;99.90
35381;DHT22;21486;51.916;8.378;2024-01-16T00:19:49;0.70;99.90
35381;DHT22;21486;51.916;8.378;2024-01-16T00:22:15;0.70;99.90
35381;DHT22;21486;51.916;8.378;2024-01-16T00:24:40;0.70;99.90
35381;DHT22;21486;51.916;8.378;2024-01-16T00:27:06;0.60;99.90
35381;DHT22;21486;51.916;8.378;2024-01-16T00:29:31;0.70;99.90
35381;DHT22;21486;51.916;8.378;2024-01-16T00:31:57;0.60;99.90
35381;DHT22;21486;51.916;8.378;2024-01-16T00:34:22;0.60;99.90
35381;DHT22;21486;51.916;8.378;2024-01-16T00:36:47;0.60;99.90
35381;DHT22;21486;51.916;8.378;2024-01-16T00:39:13;0.70;99.90
35381;DHT22;21486;51.916;8.378;2024-01-16T00:41:39;0.70;99.90
35381;DHT22;21486;51.916;8.378;2024-01-16T00:44:04;0.70;99.90
35381;DHT22;21486;51.916;8.378;2024-01-16T00:46:30;0.70;99.90
35381;DHT22;21486;51.916;8.378;2024-01-16T00:48:55;0.70;99.90
35381;DHT22;21486;51.916;8.378;2024-01-16T00:51:21;0.60;99.90
35381;DHT22;21486;51.916;8.378;2024-01-16T00:53:46;0.60;99.90
35381;DHT22;21486;51.916;8.378;2024-01-16T00:56:12;0.70;99.90
35381;DHT22;21486;51.916;8.378;2024-01-16T00:58:40;0.70;99.90
35381;DHT22;21486;51.916;8.378;2024-01-16T01:01:05;0.70;99.90
35381;DHT22;21486;51.916;8.378;2024-01-16T01:03:31;0.80;99.90
35381;DHT22;21486;51.916;8.378;2024-01-16T01:05:56;0.70;99.90
35381;DHT22;21486;51.916;8.378;2024-01-16T01:08:22;0.70;99.90
35381;DHT22;21486;51.916;8.378;2024-01-16T01:10:47;0.70;99.90
35381;DHT22;21486;51.916;8.378;2024-01-16T01:13:13;0.70;99.90
35381;DHT22;21486;51.916;8.378;2024-01-16T01:15:39;0.70;99.90
35381;DHT22;21486;51.916;8.378;2024-01-16T01:18:04;0.70;99.90
35381;DHT22;21486;51.916;8.378;2024-01-16T01:20:31;0.70;99.90
35381;DHT22;21486;51.916;8.378;2024-01-16T01:22:56;0.70;99.90
35381;DHT22;21486;51.916;8.378;2024-01-16T01:25:22;0.70;99.90
35381;DHT22;21486;51.916;8.378;2024-01-16T01:27:47;0.80;99.90
35381;DHT22;21486;51.916;8.378;2024-01-16T01:33:03;0.70;99.90
35381;DHT22;21486;51.916;8.378;2024-01-16T01:35:29;0.70;99.90
35381;DHT22;21486;51.916;8.378;2024-01-16T01:37:54;0.70;99.90
35381;DHT22;21486;51.916;8.378;2024-01-16T01:40:20;0.70;99.90
35381;DHT22;21486;51.916;8.378;2024-01-16T01:42:46;0.70;99.90
35381;DHT22;21486;51.916;8.378;2024-01-16T01:45:11;0.60;99.90
35381;DHT22;21486;51.916;8.378;2024-01-16T01:47:39;0.60;99.90
35381;DHT22;21486;51.916;8.378;2024-01-16T01:50:08;0.60;99.90
35381;DHT22;21486;51.916;8.378;2024-01-16T01:52:35;0.70;99.90
35381;DHT22;21486;51.916;8.378;2024-01-16T01:55:02;0.60;99.90
35381;DHT22;21486;51.916;8.378;2024-01-16T01:57:28;0.60;99.90
35381;DHT22;21486;51.916;8.378;2024-01-16T01:59:55;0.60;99.90
35381;DHT22;21486;51.916;8.378;2024-01-16T02:02:21;0.60;99.90
35381;DHT22;21486;51.916;8.378;2024-01-16T02:04:47;0.60;99.90
35381;DHT22;21486;51.916;8.378;2024-01-16T02:07:13;0.60;99.90
35381;DHT22;21486;51.916;8.378;2024-01-16T02:09:39;0.70;99.90
35381;DHT22;21486;51.916;8.378;2024-01-16T02:12:06;0.70;99.90
35381;DHT22;21486;51.916;8.378;2024-01-16T02:14:32;0.70;99.90
35381;DHT22;21486;51.916;8.378;2024-01-16T02:16:58;0.70;99.90
35381;DHT22;21486;51.916;8.378;2024-01-16T02:19:23;0.70;99.90
35381;DHT22;21486;51.916;8.378;2024-01-16T02:21:51;0.70;99.90
35381;DHT22;21486;51.916;8.378;2024-01-16T02:24:19;0.70;99.90
35381;DHT22;21486;51.916;8.378;2024-01-16T02:26:44;0.70;99.90
35381;DHT22;21486;51.916;8.378;2024-01-16T02:29:10;0.60;99.90
35381;DHT22;21486;51.916;8.378;2024-01-16T02:31:36;0.60;99.90
35381;DHT22;21486;51.916;8.378;2024-01-16T02:34:02;0.60;99.90
35381;DHT22;21486;51.916;8.378;2024-01-16T02:36:29;0.60;99.90
35381;DHT22;21486;51.916;8.378;2024-01-16T02:38:55;0.60;99.90
35381;DHT22;21486;51.916;8.378;2024-01-16T02:41:20;0.60;99.90
35381;DHT22;21486;51.916;8.378;2024-01-16T02:43:46;0.60;99.90
35381;DHT22;21486;51.916;8.378;2024-01-16T02:46:16;0.70;99.90
35381;DHT22;21486;51.916;8.378;2024-01-16T02:48:41;0.60;99.90
35381;DHT22;21486;51.916;8.378;2024-01-16T02:51:08;0.60;99.90
35381;DHT22;21486;51.916;8.378;2024-01-16T02:53:34;0.70;99.90
35381;DHT22;21486;51.916;8.378;2024-01-16T02:55:59;0.70;99.90
35381;DHT22;21486;51.916;8.378;2024-01-16T02:58:28;0.70;99.90
35381;DHT22;21486;51.916;8.378;2024-01-16T03:00:54;0.60;99.90
35381;DHT22;21486;51.916;8.378;2024-01-16T03:03:20;0.60;99.90
35381;DHT22;21486;51.916;8.378;2024-01-16T03:05:47;0.70;99.90
35381;DHT22;21486;51.916;8.378;2024-01-16T03:08:12;0.70;99.90
35381;DHT22;21486;51.916;8.378;2024-01-16T03:10:38;0.60;99.90
35381;DHT22;21486;51.916;8.378;2024-01-16T03:13:03;0.60;99.90
35381;DHT22;21486;51.916;8.378;2024-01-16T03:15:29;0.50;99.90
35381;DHT22;21486;51.916;8.378;2024-01-16T03:17:58;0.50;99.90
35381;DHT22;21486;51.916;8.378;2024-01-16T03:20:24;0.60;99.90
35381;DHT22;21486;51.916;8.378;2024-01-16T03:22:49;0.50;99.90
35381;DHT22;21486;51.916;8.378;2024-01-16T03:25:16;0.40;99.90
35381;DHT22;21486;51.916;8.378;2024-01-16T03:27:42;0.40;99.90
35381;DHT22;21486;51.916;8.378;2024-01-16T03:30:08;0.40;99.90
35381;DHT22;21486;51.916;8.378;2024-01-16T03:32:34;0.50;99.90
35381;DHT22;21486;51.916;8.378;2024-01-16T03:34:59;0.40;99.90
35381;DHT22;21486;51.916;8.378;2024-01-16T03:37:25;0.40;99.90
35381;DHT22;21486;51.916;8.378;2024-01-16T03:39:50;0.40;99.90
35381;DHT22;21486;51.916;8.378;2024-01-16T03:42:16;0.40;99.90
35381;DHT22;21486;51.916;8.378;2024-01-16T03:44:41;0.40;99.90
35381;DHT22;21486;51.916;8.378;2024-01-16T03:47:07;0.50;99.90
35381;DHT22;21486;51.916;8.378;2024-01-16T03:49:33;0.40;99.90
35381;DHT22;21486;51.916;8.378;2024-01-16T03:51:58;0.30;99.90
35381;DHT22;21486;51.916;8.378;2024-01-16T03:54:24;0.30;99.90
35381;DHT22;21486;51.916;8.378;2024-01-16T03:56:51;0.40;99.90
35381;DHT22;21486;51.916;8.378;2024-01-16T03:59:16;0.40;99.90
35381;DHT22;21486;51.916;8.378;2024-01-16T04:01:41;0.30;99.90
35381;DHT22;21486;51.916;8.378;2024-01-16T04:04:09;0.30;99.90
35381;DHT22;21486;51.916;8.378;2024-01-16T04:06:35;0.30;99.90
35381;DHT22;21486;51.916;8.378;2024-01-16T04:09:02;0.30;99.90
35381;DHT22;21486;51.916;8.378;2024-01-16T04:11:28;0.30;99.90
35381;DHT22;21486;51.916;8.378;2024-01-16T04:13:54;0.30;99.90
35381;DHT22;21486;51.916;8.378;2024-01-16T04:16:19;0.30;99.90
35381;DHT22;21486;51.916;8.378;2024-01-16T04:18:45;0.30;99.90
35381;DHT22;21486;51.916;8.378;2024-01-16T04:21:11;0.30;99.90
35381;DHT22;21486;51.916;8.378;2024-01-16T04:23:36;0.30;99.90
35381;DHT22;21486;51.916;8.378;2024-01-16T04:26:02;0.30;99.90
35381;DHT22;21486;51.916;8.378;2024-01-16T04:28:28;0.30;99.90
35381;DHT22;21486;51.916;8.378;2024-01-16T04:30:53;0.30;99.90
35381;DHT22;21486;51.916;8.378;2024-01-16T04:33:19;0.30;99.90
35381;DHT22;21486;51.916;8.378;2024-01-16T04:35:45;0.40;99.90
35381;DHT22;21486;51.916;8.378;2024-01-16T04:38:11;0.40;99.90
35381;DHT22;21486;51.916;8.378;2024-01-16T04:40:36;0.30;99.90
35381;DHT22;21486;51.916;8.378;2024-01-16T04:43:02;0.30;99.90
35381;DHT22;21486;51.916;8.378;2024-01-16T04:45:28;0.30;99.90
35381;DHT22;21486;51.916;8.378;2024-01-16T04:47:53;0.30;99.90
35381;DHT22;21486;51.916;8.378;2024-01-16T04:50:19;0.30;99.90
35381;DHT22;21486;51.916;8.378;2024-01-16T04:52:44;0.40;99.90
35381;DHT22;21486;51.916;8.378;2024-01-16T04:55:10;0.30;99.90
35381;DHT22;21486;51.916;8.378;2024-01-16T04:57:36;0.30;99.90
35381;DHT22;21486;51.916;8.378;2024-01-16T05:00:01;0.30;99.90
35381;DHT22;21486;51.916;8.378;2024-01-16T05:02:27;0.40;99.90
35381;DHT22;21486;51.916;8.378;2024-01-16T05:04:52;0.40;99.90
35381;DHT22;21486;51.916;8.378;2024-01-16T05:07:18;0.50;99.90
35381;DHT22;21486;51.916;8.378;2024-01-16T05:09:46;0.40;99.90
35381;DHT22;21486;51.916;8.378;2024-01-16T05:12:12;0.40;99.90
35381;DHT22;21486;51.916;8.378;2024-01-16T05:14:37;0.40;99.90
35381;DHT22;21486;51.916;8.378;2024-01-16T05:17:03;0.30;99.90
35381;DHT22;21486;51.916;8.378;2024-01-16T05:19:29;0.30;99.90
35381;DHT22;21486;51.916;8.378;2024-01-16T05:21:54;0.40;99.90
35381;DHT22;21486;51.916;8.378;2024-01-16T05:24:20;0.30;99.90
35381;DHT22;21486;51.916;8.378;2024-01-16T05:26:45;0.40;99.90
35381;DHT22;21486;51.916;8.378;2024-01-16T05:29:11;0.40;99.90
35381;DHT22;21486;51.916;8.378;2024-01-16T05:31:41;0.40;99.90
35381;DHT22;21486;51.916;8.378;2024-01-16T05:34:07;0.40;99.90
35381;DHT22;21486;51.916;8.378;2024-01-16T05:36:33;0.40;99.90
35381;DHT22;21486;51.916;8.378;2024-01-16T05:38:58;0.40;99.90
35381;DHT22;21486;51.916;8.378;2024-01-16T05:41:24;0.40;99.90
35381;DHT22;21486;51.916;8.378;2024-01-16T05:43:49;0.40;99.90
35381;DHT22;21486;51.916;8.378;2024-01-16T05:46:15;0.40;99.90
35381;DHT22;21486;51.916;8.378;2024-01-16T05:48:40;0.40;99.90
35381;DHT22;21486;51.916;8.378;2024-01-16T05:51:06;0.40;99.90
35381;DHT22;21486;51.916;8.378;2024-01-16T05:53:31;0.40;99.90
35381;DHT22;21486;51.916;8.378;2024-01-16T05:55:57;0.30;99.90
35381;DHT22;21486;51.916;8.378;2024-01-16T05:58:22;0.30;99.90
35381;DHT22;21486;51.916;8.378;2024-01-16T06:00:48;0.40;99.90
35381;DHT22;21486;51.916;8.378;2024-01-16T06:03:13;0.50;99.90
35381;DHT22;21486;51.916;8.378;2024-01-16T06:05:39;0.40;99.90
35381;DHT22;21486;51.916;8.378;2024-01-16T06:08:05;0.40;99.90
35381;DHT22;21486;51.916;8.378;2024-01-16T06:10:31;0.40;99.90
35381;DHT22;21486;51.916;8.378;2024-01-16T06:12:56;0.30;99.90
35381;DHT22;21486;51.916;8.378;2024-01-16T06:15:22;0.40;99.90
35381;DHT22;21486;51.916;8.378;2024-01-16T06:17:48;0.30;99.90
35381;DHT22;21486;51.916;8.378;2024-01-16T06:20:14;0.40;99.90
35381;DHT22;21486;51.916;8.378;2024-01-16T06:22:40;0.40;99.90
35381;DHT22;21486;51.916;8.378;2024-01-16T06:25:05;0.40;99.90
35381;DHT22;21486;51.916;8.378;2024-01-16T06:27:31;0.40;99.90
35381;DHT22;21486;51.916;8.378;2024-01-16T06:29:58;0.50;99.90
35381;DHT22;21486;51.916;8.378;2024-01-16T06:32:23;0.50;99.90
35381;DHT22;21486;51.916;8.378;2024-01-16T06:34:49;0.50;99.90
35381;DHT22;21486;51.916;8.378;2024-01-16T06:37:14;0.50;99.90
35381;DHT22;21486;51.916;8.378;2024-01-16T06:39:40;0.50;99.90
35381;DHT22;21486;51.916;8.378;2024-01-16T06:42:06;0.50;99.90
35381;DHT22;21486;51.916;8.378;2024-01-16T06:44:31;0.50;99.90
35381;DHT22;21486;51.916;8.378;2024-01-16T06:46:57;0.40;99.90
35381;DHT22;21486;51.916;8.378;2024-01-16T06:49:22;0.50;99.90
35381;DHT22;21486;51.916;8.378;2024-01-16T06:51:48;0.50;99.90
35381;DHT22;21486;51.916;8.378;2024-01-16T06:54:14;0.50;99.90
35381;DHT22;21486;51.916;8.378;2024-01-16T06:56:39;0.50;99.90
35381;DHT22;21486;51.916;8.378;2024-01-16T06:59:05;0.60;99.90
35381;DHT22;21486;51.916;8.378;2024-01-16T07:01:30;0.60;99.90
35381;DHT22;21486;51.916;8.378;2024-01-16T07:03:56;0.60;99.90
35381;DHT22;21486;51.916;8.378;2024-01-16T07:06:22;0.60;99.90
35381;DHT22;21486;51.916;8.378;2024-01-16T07:08:47;0.60;99.90
35381;DHT22;21486;51.916;8.378;2024-01-16T07:11:13;0.50;99.90
35381;DHT22;21486;51.916;8.378;2024-01-16T07:13:43;0.50;99.90
35381;DHT22;21486;51.916;8.378;2024-01-16T07:16:11;0.50;99.90
35381;DHT22;21486;51.916;8.378;2024-01-16T07:18:38;0.50;99.90
35381;DHT22;21486;51.916;8.378;2024-01-16T07:21:04;0.50;99.90
35381;DHT22;21486;51.916;8.378;2024-01-16T07:23:29;0.50;99.90
35381;DHT22;21486;51.916;8.378;2024-01-16T07:25:55;0.50;99.90
35381;DHT22;21486;51.916;8.378;2024-01-16T07:28:21;0.60;99.90
35381;DHT22;21486;51.916;8.378;2024-01-16T07:30:49;0.60;99.90
35381;DHT22;21486;51.916;8.378;2024-01-16T07:33:17;0.60;99.90
35381;DHT22;21486;51.916;8.378;2024-01-16T07:35:43;0.60;99.90
35381;DHT22;21486;51.916;8.378;2024-01-16T07:38:13;0.60;99.90
35381;DHT22;21486;51.916;8.378;2024-01-16T07:40:38;0.60;99.90
35381;DHT22;21486;51.916;8.378;2024-01-16T07:43:04;0.70;99.90
35381;DHT22;21486;51.916;8.378;2024-01-16T07:45:29;0.70;99.90
35381;DHT22;21486;51.916;8.378;2024-01-16T07:47:55;0.60;99.90
35381;DHT22;21486;51.916;8.378;2024-01-16T07:50:20;0.70;99.90
35381;DHT22;21486;51.916;8.378;2024-01-16T07:52:46;0.70;99.90
35381;DHT22;21486;51.916;8.378;2024-01-16T07:55:11;0.70;99.90
35381;DHT22;21486;51.916;8.378;2024-01-16T07:57:37;0.60;99.90
35381;DHT22;21486;51.916;8.378;2024-01-16T08:00:02;0.70;99.90
35381;DHT22;21486;51.916;8.378;2024-01-16T08:02:32;0.70;99.90
35381;DHT22;21486;51.916;8.378;2024-01-16T08:04:59;0.70;99.90
35381;DHT22;21486;51.916;8.378;2024-01-16T08:07:24;0.70;99.90
35381;DHT22;21486;51.916;8.378;2024-01-16T08:09:50;0.70;99.90
35381;DHT22;21486;51.916;8.378;2024-01-16T08:12:15;0.70;99.90
35381;DHT22;21486;51.916;8.378;2024-01-16T08:14:41;0.70;99.90
35381;DHT22;21486;51.916;8.378;2024-01-16T08:17:08;0.80;99.90
35381;DHT22;21486;51.916;8.378;2024-01-16T08:19:33;0.70;99.90
35381;DHT22;21486;51.916;8.378;2024-01-16T08:21:59;0.80;99.90
35381;DHT22;21486;51.916;8.378;2024-01-16T08:24:24;0.80;99.90
35381;DHT22;21486;51.916;8.378;2024-01-16T08:26:50;0.80;99.90
35381;DHT22;21486;51.916;8.378;2024-01-16T08:29:15;0.80;99.90
35381;DHT22;21486;51.916;8.378;2024-01-16T08:31:41;0.90;99.90
35381;DHT22;21486;51.916;8.378;2024-01-16T08:34:06;0.80;99.90
35381;DHT22;21486;51.916;8.378;2024-01-16T08:36:32;0.80;99.90
35381;DHT22;21486;51.916;8.378;2024-01-16T08:38:57;0.80;99.90
35381;DHT22;21486;51.916;8.378;2024-01-16T08:41:23;0.90;99.90
35381;DHT22;21486;51.916;8.378;2024-01-16T08:43:48;0.80;99.90
35381;DHT22;21486;51.916;8.378;2024-01-16T08:46:14;0.80;99.90
35381;DHT22;21486;51.916;8.378;2024-01-16T08:48:40;0.80;99.90
35381;DHT22;21486;51.916;8.378;2024-01-16T08:51:07;0.80;99.90
35381;DHT22;21486;51.916;8.378;2024-01-16T08:53:32;0.90;99.90
35381;DHT22;21486;51.916;8.378;2024-01-16T08:55:59;0.90;99.90
35381;DHT22;21486;51.916;8.378;2024-01-16T08:58:25;0.90;99.90
35381;DHT22;21486;51.916;8.378;2024-01-16T09:00:51;1.00;99.90
35381;DHT22;21486;51.916;8.378;2024-01-16T09:03:16;1.00;99.90
35381;DHT22;21486;51.916;8.378;2024-01-16T09:05:43;1.10;99.90
35381;DHT22;21486;51.916;8.378;2024-01-16T09:08:08;1.20;99.90
35381;DHT22;21486;51.916;8.378;2024-01-16T09:10:34;1.10;99.90
35381;DHT22;21486;51.916;8.378;2024-01-16T09:12:59;1.20;99.90
35381;DHT22;21486;51.916;8.378;2024-01-16T09:15:24;1.10;99.90
35381;DHT22;21486;51.916;8.378;2024-01-16T09:17:50;1.20;99.90
35381;DHT22;21486;51.916;8.378;2024-01-16T09:20:15;1.10;99.90
35381;DHT22;21486;51.916;8.378;2024-01-16T09:22:42;1.10;99.90
35381;DHT22;21486;51.916;8.378;2024-01-16T09:25:07;1.10;99.90
35381;DHT22;21486;51.916;8.378;2024-01-16T09:27:33;1.00;99.90
35381;DHT22;21486;51.916;8.378;2024-01-16T09:29:58;1.10;99.90
35381;DHT22;21486;51.916;8.378;2024-01-16T09:32:24;1.10;99.90
35381;DHT22;21486;51.916;8.378;2024-01-16T09:34:49;1.10;99.90
35381;DHT22;21486;51.916;8.378;2024-01-16T09:37:15;1.10;99.90
35381;DHT22;21486;51.916;8.378;2024-01-16T09:39:40;1.10;99.90
35381;DHT22;21486;51.916;8.378;2024-01-16T09:42:06;1.10;99.90
35381;DHT22;21486;51.916;8.378;2024-01-16T09:44:31;1.10;99.90
35381;DHT22;21486;51.916;8.378;2024-01-16T09:46:57;1.10;99.90
35381;DHT22;21486;51.916;8.378;2024-01-16T09:49:23;1.10;99.90
35381;DHT22;21486;51.916;8.378;2024-01-16T09:51:49;1.10;99.90
35381;DHT22;21486;51.916;8.378;2024-01-16T09:54:14;1.10;99.90
35381;DHT22;21486;51.916;8.378;2024-01-16T09:56:43;1.10;99.90
35381;DHT22;21486;51.916;8.378;2024-01-16T09:59:09;1.10;99.90
35381;DHT22;21486;51.916;8.378;2024-01-16T10:01:35;1.10;99.90
35381;DHT22;21486;51.916;8.378;2024-01-16T10:04:02;1.10;99.90
35381;DHT22;21486;51.916;8.378;2024-01-16T10:06:27;1.10;99.90
35381;DHT22;21486;51.916;8.378;2024-01-16T10:08:53;1.10;99.90
35381;DHT22;21486;51.916;8.378;2024-01-16T10:11:19;1.10;99.90
35381;DHT22;21486;51.916;8.378;2024-01-16T10:13:44;1.20;99.90
35381;DHT22;21486;51.916;8.378;2024-01-16T10:16:10;1.20;99.90
35381;DHT22;21486;51.916;8.378;2024-01-16T10:18:35;1.30;99.90
35381;DHT22;21486;51.916;8.378;2024-01-16T10:21:03;1.30;99.90
35381;DHT22;21486;51.916;8.378;2024-01-16T10:23:30;1.30;99.90
35381;DHT22;21486;51.916;8.378;2024-01-16T10:26:05;1.30;99.90
35381;DHT22;21486;51.916;8.378;2024-01-16T10:28:31;1.40;99.90
35381;DHT22;21486;51.916;8.378;2024-01-16T10:31:01;1.30;99.90
35381;DHT22;21486;51.916;8.378;2024-01-16T10:33:26;1.30;99.90
35381;DHT22;21486;51.916;8.378;2024-01-16T10:36:01;1.20;99.90
35381;DHT22;21486;51.916;8.378;2024-01-16T10:38:32;1.30;99.90
35381;DHT22;21486;51.916;8.378;2024-01-16T10:41:12;1.30;99.90
35381;DHT22;21486;51.916;8.378;2024-01-16T10:43:38;1.20;99.90
35381;DHT22;21486;51.916;8.378;2024-01-16T10:46:21;1.30;99.90
35381;DHT22;21486;51.916;8.378;2024-01-16T10:49:21;1.30;99.90
35381;DHT22;21486;51.916;8.378;2024-01-16T10:51:41;1.30;99.90
35381;DHT22;21486;51.916;8.378;2024-01-16T10:54:08;1.20;99.90
35381;DHT22;21486;51.916;8.378;2024-01-16T10:56:36;1.20;99.90
35381;DHT22;21486;51.916;8.378;2024-01-16T11:01:49;1.20;99.90
35381;DHT22;21486;51.916;8.378;2024-01-16T11:04:15;1.30;99.90
35381;DHT22;21486;51.916;8.378;2024-01-16T11:06:41;1.20;99.90
35381;DHT22;21486;51.916;8.378;2024-01-16T11:09:07;1.10;99.90
35381;DHT22;21486;51.916;8.378;2024-01-16T11:11:33;1.10;99.90
35381;DHT22;21486;51.916;8.378;2024-01-16T11:14:00;1.10;99.90
35381;DHT22;21486;51.916;8.378;2024-01-16T11:16:27;1.10;99.90
35381;DHT22;21486;51.916;8.378;2024-01-16T11:18:54;1.00;99.90
35381;DHT22;21486;51.916;8.378;2024-01-16T11:21:19;1.10;99.90
35381;DHT22;21486;51.916;8.378;2024-01-16T11:23:45;1.00;99.90
35381;DHT22;21486;51.916;8.378;2024-01-16T11:26:26;1.00;99.90
35381;DHT22;21486;51.916;8.378;2024-01-16T11:28:56;1.00;99.90
35381;DHT22;21486;51.916;8.378;2024-01-16T11:31:31;1.00;99.90
35381;DHT22;21486;51.916;8.378;2024-01-16T11:33:57;1.10;99.90
35381;DHT22;21486;51.916;8.378;2024-01-16T11:39:09;1.00;99.90
35381;DHT22;21486;51.916;8.378;2024-01-16T11:47:05;0.80;99.90
35381;DHT22;21486;51.916;8.378;2024-01-16T11:49:31;0.80;99.90
35381;DHT22;21486;51.916;8.378;2024-01-16T11:51:57;0.80;99.90
35381;DHT22;21486;51.916;8.378;2024-01-16T11:54:22;0.70;99.90
35381;DHT22;21486;51.916;8.378;2024-01-16T11:59:55;0.80;99.90
35381;DHT22;21486;51.916;8.378;2024-01-16T12:02:26;0.80;99.90
35381;DHT22;21486;51.916;8.378;2024-01-16T12:04:54;0.90;99.90
35381;DHT22;21486;51.916;8.378;2024-01-16T12:07:24;1.00;99.90
35381;DHT22;21486;51.916;8.378;2024-01-16T12:09:49;1.00;99.90
35381;DHT22;21486;51.916;8.378;2024-01-16T12:12:15;0.90;99.90
35381;DHT22;21486;51.916;8.378;2024-01-16T12:14:41;1.00;99.90
35381;DHT22;21486;51.916;8.378;2024-01-16T12:17:12;1.00;99.90
35381;DHT22;21486;51.916;8.378;2024-01-16T12:19:39;1.10;99.90
35381;DHT22;21486;51.916;8.378;2024-01-16T12:22:10;1.10;99.90
35381;DHT22;21486;51.916;8.378;2024-01-16T12:24:38;1.00;99.90
35381;DHT22;21486;51.916;8.378;2024-01-16T12:27:04;1.10;99.90
35381;DHT22;21486;51.916;8.378;2024-01-16T12:29:29;1.10;99.90
35381;DHT22;21486;51.916;8.378;2024-01-16T12:32:05;1.00;99.90
35381;DHT22;21486;51.916;8.378;2024-01-16T12:34:31;1.00;99.90
35381;DHT22;21486;51.916;8.378;2024-01-16T12:37:03;1.10;99.90
35381;DHT22;21486;51.916;8.378;2024-01-16T12:39:29;1.00;99.90
35381;DHT22;21486;51.916;8.378;2024-01-16T12:41:54;1.00;99.90
35381;DHT22;21486;51.916;8.378;2024-01-16T12:44:20;1.00;99.90
35381;DHT22;21486;51.916;8.378;2024-01-16T12:46:54;1.00;99.90
35381;DHT22;21486;51.916;8.378;2024-01-16T12:49:21;0.90;99.90
35381;DHT22;21486;51.916;8.378;2024-01-16T12:51:47;1.00;99.90
35381;DHT22;21486;51.916;8.378;2024-01-16T12:54:13;1.00;99.90
35381;DHT22;21486;51.916;8.378;2024-01-16T12:56:39;1.10;99.90
35381;DHT22;21486;51.916;8.378;2024-01-16T12:59:08;1.10;99.90
35381;DHT22;21486;51.916;8.378;2024-01-16T13:01:34;1.00;99.90
35381;DHT22;21486;51.916;8.378;2024-01-16T13:04:03;1.00;99.90
35381;DHT22;21486;51.916;8.378;2024-01-16T13:06:28;1.00;99.90
35381;DHT22;21486;51.916;8.378;2024-01-16T13:09:04;1.10;99.90
35381;DHT22;21486;51.916;8.378;2024-01-16T13:11:44;1.00;99.90
35381;DHT22;21486;51.916;8.378;2024-01-16T13:14:09;1.00;99.90
35381;DHT22;21486;51.916;8.378;2024-01-16T13:16:35;1.20;99.90
35381;DHT22;21486;51.916;8.378;2024-01-16T13:19:00;1.10;99.90
35381;DHT22;21486;51.916;8.378;2024-01-16T13:21:27;1.20;99.90
35381;DHT22;21486;51.916;8.378;2024-01-16T13:23:52;1.20;99.90
35381;DHT22;21486;51.916;8.378;2024-01-16T13:26:18;1.20;99.90
35381;DHT22;21486;51.916;8.378;2024-01-16T13:28:43;1.20;99.90
35381;DHT22;21486;51.916;8.378;2024-01-16T13:31:09;1.20;99.90
35381;DHT22;21486;51.916;8.378;2024-01-16T13:33:34;1.20;99.90
35381;DHT22;21486;51.916;8.378;2024-01-16T13:35:59;1.20;99.90
35381;DHT22;21486;51.916;8.378;2024-01-16T13:38:25;1.30;99.90
35381;DHT22;21486;51.916;8.378;2024-01-16T13:40:50;1.30;99.90
35381;DHT22;21486;51.916;8.378;2024-01-16T13:43:16;1.40;99.90
35381;DHT22;21486;51.916;8.378;2024-01-16T13:45:42;1.40;99.90
35381;DHT22;21486;51.916;8.378;2024-01-16T13:48:08;1.40;99.90
35381;DHT22;21486;51.916;8.378;2024-01-16T13:50:34;1.30;99.90
35381;DHT22;21486;51.916;8.378;2024-01-16T13:53:00;1.40;99.90
35381;DHT22;21486;51.916;8.378;2024-01-16T13:55:27;1.30;99.90
35381;DHT22;21486;51.916;8.378;2024-01-16T13:57:52;1.40;99.90
35381;DHT22;21486;51.916;8.378;2024-01-16T14:00:18;1.30;99.90
35381;DHT22;21486;51.916;8.378;2024-01-16T14:02:45;1.30;99.90
35381;DHT22;21486;51.916;8.378;2024-01-16T14:05:13;1.40;99.90
35381;DHT22;21486;51.916;8.378;2024-01-16T14:07:44;1.40;99.90
35381;DHT22;21486;51.916;8.378;2024-01-16T14:10:14;1.40;99.90
35381;DHT22;21486;51.916;8.378;2024-01-16T14:12:41;1.40;99.90
35381;DHT22;21486;51.916;8.378;2024-01-16T14:15:09;1.50;99.90
35381;DHT22;21486;51.916;8.378;2024-01-16T14:17:44;1.40;99.90
35381;DHT22;21486;51.916;8.378;2024-01-16T14:20:11;1.40;99.90
35381;DHT22;21486;51.916;8.378;2024-01-16T14:22:37;1.50;99.90
35381;DHT22;21486;51.916;8.378;2024-01-16T14:25:10;1.40;99.90
35381;DHT22;21486;51.916;8.378;2024-01-16T14:30:05;1.50;99.90
35381;DHT22;21486;51.916;8.378;2024-01-16T14:32:32;1.50;99.90
35381;DHT22;21486;51.916;8.378;2024-01-16T14:34:58;1.60;99.90
35381;DHT22;21486;51.916;8.378;2024-01-16T14:37:23;1.60;99.90
35381;DHT22;21486;51.916;8.378;2024-01-16T14:39:49;1.60;99.90
35381;DHT22;21486;51.916;8.378;2024-01-16T14:42:14;1.70;99.90
35381;DHT22;21486;51.916;8.378;2024-01-16T14:44:40;1.70;99.90
35381;DHT22;21486;51.916;8.378;2024-01-16T14:47:05;1.60;99.90
35381;DHT22;21486;51.916;8.378;2024-01-16T14:49:31;1.50;99.90
35381;DHT22;21486;51.916;8.378;2024-01-16T14:51:57;1.50;99.90
35381;DHT22;21486;51.916;8.378;2024-01-16T14:54:24;1.50;99.90
35381;DHT22;21486;51.916;8.378;2024-01-16T14:56:50;1.50;99.90
35381;DHT22;21486;51.916;8.378;2024-01-16T14:59:15;1.40;99.90
35381;DHT22;21486;51.916;8.378;2024-01-16T15:01:41;1.40;99.90
35381;DHT22;21486;51.916;8.378;2024-01-16T15:04:07;1.50;99.90
35381;DHT22;21486;51.916;8.378;2024-01-16T15:06:32;1.50;99.90
35381;DHT22;21486;51.916;8.378;2024-01-16T15:08:59;1.50;99.90
35381;DHT22;21486;51.916;8.378;2024-01-16T15:11:24;1.50;99.90
35381;DHT22;21486;51.916;8.378;2024-01-16T15:13:50;1.50;99.90
35381;DHT22;21486;51.916;8.378;2024-01-16T15:16:15;1.40;99.90
35381;DHT22;21486;51.916;8.378;2024-01-16T15:18:42;1.40;99.90
35381;DHT22;21486;51.916;8.378;2024-01-16T15:21:08;1.40;99.90
35381;DHT22;21486;51.916;8.378;2024-01-16T15:23:33;1.40;99.90
35381;DHT22;21486;51.916;8.378;2024-01-16T15:25:59;1.50;99.90
35381;DHT22;21486;51.916;8.378;2024-01-16T15:28:29;1.40;99.90
35381;DHT22;21486;51.916;8.378;2024-01-16T15:30:55;1.30;99.90
35381;DHT22;21486;51.916;8.378;2024-01-16T15:33:20;1.30;99.90
35381;DHT22;21486;51.916;8.378;2024-01-16T15:35:46;1.20;99.90
35381;DHT22;21486;51.916;8.378;2024-01-16T15:38:11;1.20;99.90
35381;DHT22;21486;51.916;8.378;2024-01-16T15:40:37;1.20;99.90
35381;DHT22;21486;51.916;8.378;2024-01-16T15:43:03;1.10;99.90
35381;DHT22;21486;51.916;8.378;2024-01-16T15:45:29;1.00;99.90
35381;DHT22;21486;51.916;8.378;2024-01-16T15:47:55;1.00;99.90
35381;DHT22;21486;51.916;8.378;2024-01-16T15:50:20;1.00;99.90
35381;DHT22;21486;51.916;8.378;2024-01-16T15:52:46;1.00;99.90
35381;DHT22;21486;51.916;8.378;2024-01-16T15:55:12;0.90;99.90
35381;DHT22;21486;51.916;8.378;2024-01-16T15:57:37;0.80;99.90